Time;durP1;ratioP1;P1;durP2;ratioP2;P2;SDS_P1;SDS_P2;PMS_P1;PMS_P2;Temp;Humidity;BMP_temperature;BMP_pressure;BME280_temperature;BME280_humidity;BME280_pressure;Samples;Min_cycle;Max_cycle;Signal;HPM_P1;HPM_P2
2022/10/04 00:01:46;;;;;;;9.73;2.57;;;14.60;1.00;;;;;;5044667;28;20505;-54
2022/10/04 00:04:15;;;;;;;4.47;2.17;;;14.50;1.00;;;;;;5043884;28;20422;-56
2022/10/04 00:07:00;;;;;;;5.37;2.10;;;14.40;1.00;;;;;;5046813;28;20482;-54
2022/10/04 00:09:33;;;;;;;4.80;2.13;;;14.50;1.00;;;;;;5046353;28;20938;-55
2022/10/04 00:11:59;;;;;;;5.33;2.23;;;14.60;1.00;;;;;;5044613;28;20456;-55
2022/10/04 00:14:30;;;;;;;6.67;2.00;;;14.60;1.00;;;;;;5047990;28;20439;-57
2022/10/04 00:16:57;;;;;;;5.70;2.47;;;14.60;1.00;;;;;;5047284;28;20454;-55
2022/10/04 00:19:42;;;;;;;4.33;2.37;;;14.40;1.00;;;;;;5047880;28;20415;-56
2022/10/04 00:22:11;;;;;;;5.43;2.53;;;14.40;1.00;;;;;;5046897;28;20429;-52
2022/10/04 00:24:57;;;;;;;2.50;1.70;;;14.40;1.00;;;;;;5044009;28;20904;-55
2022/10/04 00:27:25;;;;;;;3.93;2.07;;;14.40;1.00;;;;;;5053721;28;20837;-52
2022/10/04 00:30:03;;;;;;;2.80;1.53;;;14.40;1.00;;;;;;5043595;28;20533;-53
2022/10/04 00:32:29;;;;;;;10.00;2.30;;;14.40;1.00;;;;;;5046653;28;20475;-57
2022/10/04 00:34:56;;;;;;;6.60;1.60;;;14.40;1.00;;;;;;5039924;28;20423;-57
2022/10/04 00:37:24;;;;;;;5.23;2.00;;;14.40;1.00;;;;;;5042206;28;20481;-56
2022/10/04 00:40:01;;;;;;;3.90;1.80;;;14.40;1.00;;;;;;5045447;28;20455;-54
2022/10/04 00:42:40;;;;;;;4.30;2.10;;;14.40;1.00;;;;;;5046769;28;20481;-54
2022/10/04 00:45:13;;;;;;;3.20;2.23;;;14.40;1.00;;;;;;5049768;28;20427;-54
2022/10/04 00:47:45;;;;;;;5.50;1.90;;;14.40;1.00;;;;;;5053049;28;20864;-54
2022/10/04 00:50:17;;;;;;;4.47;1.97;;;14.40;1.00;;;;;;5046019;28;20436;-55
2022/10/04 00:52:55;;;;;;;4.57;2.07;;;14.40;1.00;;;;;;5043337;28;20454;-56
2022/10/04 00:55:33;;;;;;;5.47;1.93;;;14.30;1.00;;;;;;5046794;28;20448;-56
2022/10/04 00:58:01;;;;;;;5.27;2.17;;;14.30;1.00;;;;;;5044156;28;20801;-54
2022/10/04 01:00:32;;;;;;;10.13;2.57;;;14.30;1.00;;;;;;5048455;28;20452;-54
2022/10/04 01:03:09;;;;;;;4.23;2.07;;;14.40;1.00;;;;;;5047493;28;20449;-54
2022/10/04 01:05:56;;;;;;;2.70;1.87;;;14.40;1.00;;;;;;5045462;28;20428;-56
2022/10/04 01:08:30;;;;;;;5.40;2.13;;;14.40;1.00;;;;;;5045609;28;20453;-53
2022/10/04 01:11:05;;;;;;;3.97;1.80;;;14.50;1.00;;;;;;5047285;28;20861;-54
2022/10/04 01:13:37;;;;;;;4.90;2.13;;;14.40;1.00;;;;;;5044007;28;20502;-54
2022/10/04 01:16:18;;;;;;;5.40;2.00;;;14.30;1.00;;;;;;5045981;28;20835;-54
2022/10/04 01:18:44;;;;;;;8.67;1.77;;;14.30;1.00;;;;;;5049932;28;20447;-53
2022/10/04 01:21:19;;;;;;;7.13;2.40;;;14.40;1.00;;;;;;5049323;28;20418;-53
2022/10/04 01:23:48;;;;;;;5.30;2.00;;;14.40;1.00;;;;;;5048242;28;20949;-54
2022/10/04 01:26:29;;;;;;;6.10;2.00;;;14.40;1.00;;;;;;5044717;28;20418;-55
2022/10/04 01:28:57;;;;;;;6.30;2.20;;;14.30;1.00;;;;;;5049310;28;20485;-56
2022/10/04 01:31:27;;;;;;;5.03;1.87;;;14.20;1.00;;;;;;5045825;28;20443;-56
2022/10/04 01:33:54;;;;;;;6.67;3.00;;;14.40;1.00;;;;;;5045367;28;20446;-54
2022/10/04 01:36:20;;;;;;;4.83;1.70;;;14.40;1.00;;;;;;5046525;28;20462;-52
2022/10/04 01:38:46;;;;;;;5.83;2.10;;;14.50;1.00;;;;;;5045794;28;20440;-55
2022/10/04 01:41:17;;;;;;;8.93;2.33;;;14.40;1.00;;;;;;5043365;28;20939;-54
2022/10/04 01:43:49;;;;;;;3.20;1.70;;;14.40;1.00;;;;;;5046440;28;20474;-55
2022/10/04 01:46:35;;;;;;;8.50;2.30;;;14.30;1.00;;;;;;5049715;28;20429;-54
2022/10/04 01:49:12;;;;;;;6.60;1.80;;;14.40;1.00;;;;;;5051907;28;20436;-55
2022/10/04 01:51:48;;;;;;;7.40;2.10;;;14.40;1.00;;;;;;5051916;28;20452;-55
2022/10/04 01:54:18;;;;;;;5.37;1.90;;;14.50;1.00;;;;;;5051565;28;20433;-52
2022/10/04 01:57:17;;;;;;;3.90;1.73;;;14.40;1.00;;;;;;5047943;28;20443;-53
2022/10/04 02:00:00;;;;;;;8.10;1.87;;;14.40;1.00;;;;;;5050329;28;20449;-56
2022/10/04 02:02:34;;;;;;;4.30;1.80;;;14.30;1.00;;;;;;5048927;28;20539;-57
2022/10/04 02:05:02;;;;;;;4.80;1.80;;;14.30;1.00;;;;;;5051913;28;20453;-56
2022/10/04 02:07:31;;;;;;;5.37;2.07;;;14.30;1.00;;;;;;5048954;28;20615;-55
2022/10/04 02:10:01;;;;;;;3.60;2.07;;;14.30;1.00;;;;;;5048126;28;20502;-54
2022/10/04 02:12:32;;;;;;;6.90;2.33;;;14.30;1.00;;;;;;5046676;28;20507;-54
2022/10/04 02:15:01;;;;;;;4.43;1.57;;;14.20;1.00;;;;;;5047808;28;20525;-53
2022/10/04 02:17:32;;;;;;;5.43;2.00;;;14.10;1.00;;;;;;5052068;28;20936;-56
2022/10/04 02:20:00;;;;;;;6.13;1.83;;;14.10;1.00;;;;;;5050884;28;20501;-53
2022/10/04 02:22:26;;;;;;;6.13;2.03;;;14.20;1.00;;;;;;5046847;28;20461;-55
2022/10/04 02:24:55;;;;;;;6.53;1.83;;;14.20;1.00;;;;;;5052672;28;20445;-54
2022/10/04 02:27:29;;;;;;;4.40;1.67;;;14.20;1.00;;;;;;5042464;28;20473;-52
2022/10/04 02:30:05;;;;;;;5.00;2.00;;;14.10;1.00;;;;;;5049360;28;20418;-54
2022/10/04 02:35:18;;;;;;;6.10;1.90;;;14.10;1.00;;;;;;5051485;28;20499;-55
2022/10/04 02:37:52;;;;;;;6.63;2.47;;;14.10;1.00;;;;;;5049359;28;20456;-53
2022/10/04 02:40:25;;;;;;;4.47;1.90;;;14.20;1.00;;;;;;5044607;28;20502;-54
2022/10/04 02:43:01;;;;;;;4.17;1.77;;;14.20;1.00;;;;;;5047087;28;20807;-55
2022/10/04 02:45:47;;;;;;;4.40;1.77;;;14.20;1.00;;;;;;5051455;28;20449;-53
2022/10/04 02:48:35;;;;;;;5.27;2.13;;;14.20;1.00;;;;;;5047510;28;20455;-56
2022/10/04 02:51:22;;;;;;;4.60;2.57;;;14.10;1.00;;;;;;5049442;28;20440;-54
2022/10/04 02:54:00;;;;;;;2.20;1.60;;;14.10;1.00;;;;;;5045698;28;20856;-53
2022/10/04 02:56:26;;;;;;;4.97;2.37;;;14.10;1.00;;;;;;5050222;28;20414;-54
2022/10/04 02:58:53;;;;;;;4.03;2.30;;;14.10;1.00;;;;;;5050406;28;20541;-55
2022/10/04 03:01:27;;;;;;;7.47;2.47;;;14.10;1.00;;;;;;5046293;28;21259;-54
2022/10/04 03:03:56;;;;;;;5.07;1.97;;;14.10;1.00;;;;;;5051473;28;20446;-53
2022/10/04 03:06:26;;;;;;;6.13;2.30;;;14.00;1.00;;;;;;5044040;28;20468;-55
2022/10/04 03:08:57;;;;;;;8.27;3.00;;;14.00;1.00;;;;;;5046503;28;20439;-55
2022/10/04 03:11:27;;;;;;;4.87;2.20;;;14.10;1.00;;;;;;5045748;28;20545;-56
2022/10/04 03:13:56;;;;;;;6.30;2.57;;;14.00;1.00;;;;;;5049393;28;20498;-54
2022/10/04 03:16:23;;;;;;;5.73;2.27;;;14.00;1.00;;;;;;5049727;28;20455;-57
2022/10/04 03:18:51;;;;;;;6.30;2.57;;;14.00;1.00;;;;;;5047275;28;20507;-54
2022/10/04 03:21:19;;;;;;;6.87;2.53;;;14.00;1.00;;;;;;5045056;28;20450;-54
2022/10/04 03:23:47;;;;;;;4.47;2.10;;;14.00;1.00;;;;;;5050518;28;20441;-54
2022/10/04 03:26:21;;;;;;;6.03;2.97;;;14.00;1.00;;;;;;5047465;28;20544;-54
2022/10/04 03:28:47;;;;;;;7.23;2.80;;;14.00;1.00;;;;;;5047804;28;20484;-56
2022/10/04 03:31:14;;;;;;;4.03;2.37;;;14.00;1.00;;;;;;5044363;28;20424;-55
2022/10/04 03:33:41;;;;;;;9.03;3.10;;;14.10;1.00;;;;;;5044476;28;20458;-54
2022/10/04 03:36:15;;;;;;;3.47;2.10;;;14.10;1.00;;;;;;5049212;28;20450;-54
2022/10/04 03:38:42;;;;;;;5.03;2.40;;;14.10;1.00;;;;;;5042802;28;20485;-54
2022/10/04 03:41:09;;;;;;;4.70;1.93;;;14.10;1.00;;;;;;5045594;28;20503;-54
2022/10/04 03:43:42;;;;;;;5.80;1.90;;;14.10;1.00;;;;;;5049705;28;20857;-53
2022/10/04 03:46:08;;;;;;;6.00;1.90;;;14.20;1.00;;;;;;5049376;28;20533;-57
2022/10/04 03:48:40;;;;;;;4.20;2.33;;;14.10;1.00;;;;;;5047902;28;20443;-58
2022/10/04 03:51:10;;;;;;;7.40;2.47;;;14.00;1.00;;;;;;5049716;28;20503;-55
2022/10/04 03:53:42;;;;;;;7.83;2.30;;;14.10;1.00;;;;;;5050557;28;20430;-56
2022/10/04 03:56:23;;;;;;;5.90;2.50;;;13.90;1.00;;;;;;5048041;28;20458;-54
2022/10/04 03:58:50;;;;;;;4.17;2.13;;;13.80;1.00;;;;;;5049319;28;20445;-55
2022/10/04 04:01:39;;;;;;;6.53;1.87;;;13.90;1.00;;;;;;5050621;28;20497;-55
2022/10/04 04:04:28;;;;;;;6.50;2.27;;;13.90;1.00;;;;;;5049145;28;20467;-56
2022/10/04 04:07:32;;;;;;;4.50;1.93;;;14.00;1.00;;;;;;5049247;28;20498;-57
2022/10/04 04:10:05;;;;;;;5.37;2.30;;;14.00;1.00;;;;;;5041264;28;20806;-55
2022/10/04 04:12:34;;;;;;;8.50;2.40;;;13.90;1.00;;;;;;5049262;28;21213;-54
2022/10/04 04:15:01;;;;;;;5.93;2.40;;;14.00;1.00;;;;;;5049120;28;20969;-55
2022/10/04 04:17:26;;;;;;;3.50;1.67;;;14.00;1.00;;;;;;5051293;28;20436;-53
2022/10/04 04:19:59;;;;;;;7.43;1.93;;;13.90;1.00;;;;;;5048724;28;20455;-56
2022/10/04 04:22:30;;;;;;;6.23;2.37;;;13.90;1.00;;;;;;5048428;28;20189;-52
2022/10/04 04:24:59;;;;;;;4.73;2.73;;;13.90;1.00;;;;;;5049683;28;20444;-54
2022/10/04 04:27:25;;;;;;;5.93;3.13;;;14.00;1.00;;;;;;5049909;28;20445;-56
2022/10/04 04:29:52;;;;;;;6.47;2.40;;;14.00;1.00;;;;;;5051189;28;20787;-54
2022/10/04 04:32:23;;;;;;;5.90;2.77;;;14.00;1.00;;;;;;5049568;28;20477;-53
2022/10/04 04:34:57;;;;;;;5.30;2.17;;;14.00;1.00;;;;;;5046876;28;20446;-55
2022/10/04 04:37:24;;;;;;;8.70;3.67;;;;;;;;;;5047677;28;20447;-55
2022/10/04 04:39:53;;;;;;;5.93;2.40;;;13.90;1.00;;;;;;5050837;28;20457;-54
2022/10/04 04:42:32;;;;;;;5.60;2.97;;;14.00;1.00;;;;;;5048891;28;20455;-56
2022/10/04 04:45:02;;;;;;;5.07;2.03;;;14.00;1.00;;;;;;5047353;28;20451;-53
2022/10/04 04:47:41;;;;;;;7.33;2.60;;;13.90;1.00;;;;;;5046895;28;20505;-53
2022/10/04 04:50:12;;;;;;;6.47;2.50;;;13.90;1.00;;;;;;5047201;28;20447;-55
2022/10/04 04:52:39;;;;;;;3.77;2.17;;;13.90;1.00;;;;;;5046838;28;20459;-55
2022/10/04 04:55:06;;;;;;;5.57;2.63;;;14.00;1.00;;;;;;5045916;28;20442;-56
2022/10/04 04:57:32;;;;;;;4.93;2.40;;;13.90;1.00;;;;;;5049063;28;20496;-54
2022/10/04 05:00:00;;;;;;;12.70;2.60;;;14.00;1.00;;;;;;5046253;28;20455;-53
2022/10/04 05:02:36;;;;;;;4.43;2.57;;;14.00;1.00;;;;;;5049010;28;20483;-53
2022/10/04 05:05:23;;;;;;;7.87;3.10;;;14.00;1.00;;;;;;5045299;28;20447;-55
2022/10/04 05:08:01;;;;;;;10.10;2.90;;;14.00;1.00;;;;;;5049036;28;20468;-55
2022/10/04 05:10:32;;;;;;;5.23;2.60;;;14.10;1.00;;;;;;5046796;28;20450;-54
2022/10/04 05:13:00;;;;;;;9.10;2.70;;;14.10;1.00;;;;;;5045725;28;20452;-54
2022/10/04 05:15:30;;;;;;;6.27;3.00;;;14.10;1.00;;;;;;5048343;28;20421;-56
2022/10/04 05:17:56;;;;;;;7.57;3.80;;;14.00;1.00;;;;;;5047281;28;20960;-56
2022/10/04 05:20:22;;;;;;;10.33;3.40;;;14.00;1.00;;;;;;5046710;28;20454;-55
2022/10/04 05:22:49;;;;;;;6.40;3.40;;;14.00;1.00;;;;;;5047470;28;20195;-57
2022/10/04 05:25:33;;;;;;;4.00;2.57;;;14.00;1.00;;;;;;5048588;28;20645;-51
2022/10/04 05:27:59;;;;;;;7.50;2.60;;;14.10;1.00;;;;;;5044389;28;20452;-55
2022/10/04 05:30:57;;;;;;;8.37;3.13;;;14.00;1.00;;;;;;5048520;28;20835;-57
2022/10/04 05:33:25;;;;;;;13.70;3.93;;;14.10;1.00;;;;;;5047390;28;20442;-55
2022/10/04 05:36:10;;;;;;;9.07;2.63;;;14.00;1.00;;;;;;5046305;28;20439;-57
2022/10/04 05:38:56;;;;;;;10.50;3.10;;;14.10;1.00;;;;;;5043711;28;20560;-53
2022/10/04 05:41:32;;;;;;;6.33;2.50;;;14.00;1.00;;;;;;5036528;28;20420;-56
2022/10/04 05:43:58;;;;;;;7.47;3.07;;;14.00;1.00;;;;;;5043129;28;20493;-56
2022/10/04 05:46:30;;;;;;;7.80;3.43;;;14.10;1.00;;;;;;5046172;28;20473;-54
2022/10/04 05:49:07;;;;;;;8.10;4.00;;;14.10;1.00;;;;;;5042950;28;20528;-55
2022/10/04 05:51:46;;;;;;;4.47;2.43;;;14.10;1.00;;;;;;5048294;28;20446;-55
2022/10/04 05:54:12;;;;;;;7.67;3.13;;;14.10;1.00;;;;;;5048593;28;20451;-54
2022/10/04 05:57:07;;;;;;;6.03;3.10;;;14.20;1.00;;;;;;5048831;28;20445;-54
2022/10/04 05:59:55;;;;;;;4.40;2.60;;;14.10;1.00;;;;;;5063193;28;20531;-53
2022/10/04 06:02:50;;;;;;;5.93;2.63;;;14.10;1.00;;;;;;5048341;28;20784;-54
2022/10/04 06:05:43;;;;;;;3.43;1.93;;;14.20;1.00;;;;;;5048716;28;20995;-55
2022/10/04 06:08:30;;;;;;;7.80;2.70;;;14.20;1.00;;;;;;5051691;28;20470;-57
2022/10/04 06:11:26;;;;;;;5.07;2.60;;;14.20;1.00;;;;;;5045862;28;20564;-54
2022/10/04 06:14:23;;;;;;;7.60;2.93;;;14.30;1.00;;;;;;5044272;28;20449;-53
2022/10/04 06:17:19;;;;;;;4.50;2.93;;;14.30;1.00;;;;;;5047370;28;20453;-56
2022/10/04 06:20:01;;;;;;;7.03;2.53;;;14.30;1.00;;;;;;5048331;28;20789;-56
2022/10/04 06:22:27;;;;;;;5.17;3.00;;;14.30;1.00;;;;;;5048242;28;20536;-56
2022/10/04 06:25:03;;;;;;;5.20;2.60;;;14.20;1.00;;;;;;5048652;28;20580;-55
2022/10/04 06:27:54;;;;;;;10.00;3.40;;;14.20;1.00;;;;;;5038919;28;20204;-53
2022/10/04 06:30:20;;;;;;;5.47;2.90;;;14.10;1.00;;;;;;5043821;28;20970;-53
2022/10/04 06:33:12;;;;;;;4.63;2.53;;;14.30;1.00;;;;;;5052916;28;20514;-56
2022/10/04 06:36:00;;;;;;;7.93;3.03;;;14.30;1.00;;;;;;5048449;28;20189;-53
2022/10/04 06:38:55;;;;;;;4.70;2.67;;;14.30;1.00;;;;;;5049204;28;20461;-55
2022/10/04 06:41:41;;;;;;;5.70;2.47;;;14.50;1.00;;;;;;5047601;28;20439;-57
2022/10/04 06:44:11;;;;;;;5.27;3.37;;;14.40;1.00;;;;;;5048612;28;20478;-54
2022/10/04 06:46:49;;;;;;;12.00;2.70;;;14.40;1.00;;;;;;5051339;28;20535;-56
2022/10/04 06:49:53;;;;;;;5.50;3.13;;;14.50;1.00;;;;;;5051771;28;20447;-56
2022/10/04 06:52:30;;;;;;;5.90;3.00;;;14.60;1.00;;;;;;5029611;28;20458;-54
2022/10/04 06:55:18;;;;;;;5.57;2.30;;;14.60;1.00;;;;;;5046357;28;20459;-54
2022/10/04 06:58:08;;;;;;;9.10;3.00;;;14.80;1.00;;;;;;5048056;28;20432;-53
2022/10/04 07:00:47;;;;;;;6.77;2.77;;;14.80;1.00;;;;;;5051961;28;20425;-54
2022/10/04 07:03:37;;;;;;;4.30;1.93;;;14.80;1.00;;;;;;5052886;28;20432;-56
2022/10/04 07:06:06;;;;;;;3.87;2.40;;;14.80;1.00;;;;;;5051874;28;20521;-53
2022/10/04 07:08:46;;;;;;;10.50;2.80;;;14.80;1.00;;;;;;5051409;28;20505;-55
2022/10/04 07:11:17;;;;;;;5.77;2.73;;;14.90;1.00;;;;;;5052057;28;20449;-52
2022/10/04 07:14:01;;;;;;;7.67;3.40;;;15.00;1.00;;;;;;5052287;28;20488;-54
2022/10/04 07:16:42;;;;;;;3.83;2.60;;;15.20;1.00;;;;;;5049135;28;20475;-53
2022/10/04 07:19:11;;;;;;;7.87;3.10;;;15.20;1.00;;;;;;5046860;28;20793;-55
2022/10/04 07:22:04;;;;;;;11.70;3.60;;;15.30;1.00;;;;;;5051253;28;20453;-57
2022/10/04 07:24:50;;;;;;;9.30;4.77;;;15.30;1.00;;;;;;5048333;28;20459;-57
2022/10/04 07:27:21;;;;;;;8.23;3.13;;;15.40;1.00;;;;;;5038253;28;21014;-57
2022/10/04 07:29:54;;;;;;;8.63;2.77;;;15.40;1.00;;;;;;5050119;28;20456;-53
2022/10/04 07:32:23;;;;;;;8.47;2.20;;;15.70;1.00;;;;;;5049712;28;20521;-56
2022/10/04 07:34:59;;;;;;;14.30;7.63;;;15.80;1.00;;;;;;5051344;28;20449;-55
2022/10/04 07:37:28;;;;;;;7.20;2.73;;;15.90;1.00;;;;;;5048960;28;20867;-54
2022/10/04 07:40:05;;;;;;;9.63;3.30;;;16.10;1.00;;;;;;5051062;28;20760;-54
2022/10/04 07:42:51;;;;;;;6.60;2.30;;;16.30;1.00;;;;;;5049769;28;20849;-55
2022/10/04 07:45:31;;;;;;;4.43;2.17;;;16.40;1.00;;;;;;5047900;28;20480;-55
2022/10/04 07:48:23;;;;;;;6.97;2.60;;;16.50;1.00;;;;;;5050892;28;20478;-55
2022/10/04 07:50:59;;;;;;;8.47;2.90;;;16.30;1.00;;;;;;5047392;28;20454;-57
2022/10/04 07:53:36;;;;;;;6.27;2.20;;;16.30;1.00;;;;;;5047967;28;20533;-52
2022/10/04 07:56:07;;;;;;;7.50;2.00;;;16.30;1.00;;;;;;5048171;28;20472;-54
2022/10/04 07:58:38;;;;;;;5.60;2.03;;;16.20;1.00;;;;;;5047720;28;20447;-54
2022/10/04 08:01:37;;;;;;;5.50;2.63;;;16.20;1.00;;;;;;5050703;28;20445;-56
2022/10/04 08:04:33;;;;;;;4.30;2.20;;;16.30;1.00;;;;;;5051355;28;20405;-53
2022/10/04 08:07:02;;;;;;;5.33;2.30;;;16.40;1.00;;;;;;5040266;28;20845;-55
2022/10/04 08:09:36;;;;;;;3.57;1.60;;;16.50;1.00;;;;;;5051787;28;20464;-55
2022/10/04 08:12:22;;;;;;;8.73;3.30;;;16.80;1.00;;;;;;5046070;28;20448;-55
2022/10/04 08:14:53;;;;;;;7.50;2.27;;;16.30;1.00;;;;;;5045362;28;20453;-54
2022/10/04 08:17:46;;;;;;;4.60;2.27;;;16.40;1.00;;;;;;5051406;28;20432;-54
2022/10/04 08:20:30;;;;;;;6.80;2.23;;;16.50;1.00;;;;;;5050758;28;20540;-55
2022/10/04 08:23:14;;;;;;;4.80;2.70;;;16.50;1.00;;;;;;5050536;28;20416;-53
2022/10/04 08:26:04;;;;;;;5.40;2.37;;;16.60;1.00;;;;;;5050551;28;20444;-56
2022/10/04 08:31:56;;;;;;;7.40;3.80;;;16.90;1.00;;;;;;5044550;28;20489;-54
2022/10/04 08:34:43;;;;;;;6.80;2.53;;;16.70;1.00;;;;;;5050510;28;20448;-53
2022/10/04 08:37:48;;;;;;;9.00;4.60;;;16.50;1.00;;;;;;5050088;28;20452;-53
2022/10/04 08:40:34;;;;;;;7.60;2.40;;;16.60;1.00;;;;;;5050338;28;20444;-54
2022/10/04 08:43:30;;;;;;;4.77;2.60;;;16.70;1.00;;;;;;5050048;28;20475;-54
2022/10/04 08:46:22;;;;;;;6.47;2.40;;;16.60;1.00;;;;;;5046563;28;20443;-53
2022/10/04 08:49:06;;;;;;;7.03;2.60;;;16.80;1.00;;;;;;5064147;28;20515;-54
2022/10/04 08:51:56;;;;;;;5.87;2.27;;;16.90;1.00;;;;;;5069895;28;20540;-56
2022/10/04 08:54:49;;;;;;;5.13;2.50;;;16.80;1.00;;;;;;5058477;28;20472;-55
2022/10/04 08:57:57;;;;;;;3.37;2.20;;;16.90;1.00;;;;;;5069955;28;20462;-55
2022/10/04 09:00:30;;;;;;;10.53;2.93;;;16.90;1.00;;;;;;5069511;28;20438;-54
2022/10/04 09:03:40;;;;;;;8.10;2.70;;;16.90;1.00;;;;;;5054738;28;20417;-55
2022/10/04 09:06:26;;;;;;;5.90;2.67;;;16.80;1.00;;;;;;5049650;28;20437;-53
2022/10/04 09:09:19;;;;;;;6.33;2.80;;;16.90;1.00;;;;;;5049766;28;20421;-55
2022/10/04 09:12:07;;;;;;;4.60;2.87;;;17.00;1.00;;;;;;5049733;28;20471;-55
2022/10/04 09:14:52;;;;;;;5.00;2.67;;;17.00;1.00;;;;;;5049721;28;20448;-55
2022/10/04 09:17:32;;;;;;;5.30;2.90;;;17.00;1.00;;;;;;5049230;28;20834;-55
2022/10/04 09:20:12;;;;;;;6.87;3.03;;;17.10;1.00;;;;;;5049713;28;20444;-56
2022/10/04 09:23:00;;;;;;;6.33;2.47;;;17.10;1.00;;;;;;5056790;28;20439;-54
2022/10/04 09:26:07;;;;;;;7.33;3.30;;;16.90;1.00;;;;;;5069454;28;20472;-56
2022/10/04 09:29:10;;;;;;;7.37;2.87;;;16.90;1.00;;;;;;5066293;28;20505;-55
2022/10/04 09:31:46;;;;;;;5.10;3.00;;;17.10;1.00;;;;;;5069434;28;20441;-53
2022/10/04 09:34:26;;;;;;;4.97;2.90;;;17.00;1.00;;;;;;5069536;28;20440;-53
2022/10/04 09:37:08;;;;;;;9.70;2.97;;;17.10;1.00;;;;;;5069835;28;20848;-55
2022/10/04 09:39:52;;;;;;;4.33;2.70;;;17.20;1.00;;;;;;5068472;28;20584;-53
2022/10/04 09:42:21;;;;;;;4.10;2.90;;;17.30;1.00;;;;;;5048909;28;20550;-57
2022/10/04 09:45:19;;;;;;;7.43;3.70;;;17.40;1.00;;;;;;5049803;28;20433;-54
2022/10/04 09:47:57;;;;;;;4.70;2.67;;;17.30;1.00;;;;;;5049573;28;20821;-54
2022/10/04 09:50:38;;;;;;;5.47;2.40;;;17.30;1.00;;;;;;5049289;28;20480;-53
2022/10/04 09:53:21;;;;;;;4.43;3.60;;;17.60;1.00;;;;;;5048088;28;20903;-53
2022/10/04 09:56:25;;;;;;;3.93;2.47;;;17.80;1.00;;;;;;5049391;28;20470;-56
2022/10/04 09:59:52;;;;;;;3.50;2.67;;;18.00;1.00;;;;;;5049649;28;20470;-54
2022/10/04 10:02:45;;;;;;;8.40;2.50;;;18.40;1.00;;;;;;5034545;28;20509;-53
2022/10/04 10:05:15;;;;;;;4.20;2.47;;;18.50;1.00;;;;;;5030430;28;21088;-53
2022/10/04 10:08:07;;;;;;;9.30;3.97;;;18.60;1.00;;;;;;5049361;28;20447;-54
2022/10/04 10:13:39;;;;;;;5.33;2.73;;;18.40;1.00;;;;;;5053285;28;20499;-55
2022/10/04 10:16:17;;;;;;;5.87;2.03;;;18.20;1.00;;;;;;5053502;28;20992;-54
2022/10/04 10:19:15;;;;;;;5.33;2.03;;;18.30;1.00;;;;;;5053053;28;20432;-54
2022/10/04 10:21:58;;;;;;;2.80;1.93;;;18.40;1.00;;;;;;5052524;28;20424;-54
2022/10/04 10:24:52;;;;;;;4.00;2.23;;;18.60;1.00;;;;;;5052845;28;20490;-56
2022/10/04 10:27:47;;;;;;;3.67;2.00;;;18.70;1.00;;;;;;5052383;28;20462;-55
2022/10/04 10:30:14;;;;;;;6.53;2.17;;;18.70;1.00;;;;;;5052871;28;20968;-56
2022/10/04 10:33:02;;;;;;;6.87;2.37;;;18.90;1.00;;;;;;5052706;28;20446;-54
2022/10/04 10:35:42;;;;;;;5.57;2.50;;;19.00;1.00;;;;;;5052681;28;20445;-53
2022/10/04 10:38:31;;;;;;;11.70;7.80;;;18.80;1.00;;;;;;5052595;28;20436;-57
2022/10/04 10:41:04;;;;;;;5.57;1.83;;;18.70;1.00;;;;;;5052700;28;20442;-54
2022/10/04 10:43:54;;;;;;;4.43;1.87;;;18.80;1.00;;;;;;5052346;28;20471;-55
2022/10/04 10:46:41;;;;;;;3.20;1.47;;;18.80;1.00;;;;;;5052360;28;20416;-56
2022/10/04 10:49:32;;;;;;;4.30;1.70;;;18.60;1.00;;;;;;5052122;28;20446;-55
2022/10/04 10:52:24;;;;;;;3.83;1.87;;;18.70;1.00;;;;;;5052500;28;20445;-55
2022/10/04 10:55:25;;;;;;;3.50;1.73;;;18.70;1.00;;;;;;5041496;28;20454;-54
2022/10/04 10:58:33;;;;;;;4.63;1.70;;;18.80;1.00;;;;;;5051950;28;20444;-54
2022/10/04 11:01:29;;;;;;;3.17;1.43;;;18.90;1.00;;;;;;5052181;28;20439;-55
2022/10/04 11:04:24;;;;;;;4.03;1.70;;;19.10;1.00;;;;;;5051603;28;20437;-54
2022/10/04 11:07:21;;;;;;;10.57;2.90;;;18.90;1.00;;;;;;5051768;28;20465;-55
2022/10/04 11:10:26;;;;;;;2.93;1.73;;;18.80;1.00;;;;;;5051501;28;20498;-55
2022/10/04 11:13:27;;;;;;;3.03;1.40;;;18.80;1.00;;;;;;5050056;28;20533;-56
2022/10/04 11:16:33;;;;;;;5.23;1.80;;;19.10;1.00;;;;;;5052040;28;20444;-56
2022/10/04 11:19:20;;;;;;;4.73;1.73;;;19.20;1.00;;;;;;5051978;28;20440;-55
2022/10/04 11:22:05;;;;;;;4.23;1.60;;;19.50;1.00;;;;;;5051963;28;20488;-54
2022/10/04 11:24:49;;;;;;;5.70;1.73;;;19.60;1.00;;;;;;5051750;28;20429;-55
2022/10/04 11:27:42;;;;;;;3.20;1.50;;;19.70;1.00;;;;;;5048913;28;20497;-56
2022/10/04 11:30:52;;;;;;;4.60;1.77;;;19.60;1.00;;;;;;5071983;28;20759;-53
2022/10/04 11:33:51;;;;;;;4.50;1.40;;;19.20;1.00;;;;;;5048549;28;20518;-55
2022/10/04 11:36:38;;;;;;;4.03;1.93;;;19.10;1.00;;;;;;5051744;28;20466;-56
2022/10/04 11:39:24;;;;;;;2.90;1.33;;;19.60;1.00;;;;;;5050869;28;20441;-55
2022/10/04 11:42:06;;;;;;;4.67;1.90;;;20.10;1.00;;;;;;5051622;28;20473;-55
2022/10/04 11:44:42;;;;;;;2.90;1.33;;;20.40;1.00;;;;;;5051519;28;20448;-54
2022/10/04 11:47:37;;;;;;;4.53;1.70;;;20.60;1.00;;;;;;5051103;28;20493;-56
2022/10/04 11:50:50;;;;;;;5.50;1.90;;;20.70;1.00;;;;;;5049843;28;20476;-55
2022/10/04 11:53:51;;;;;;;5.23;2.60;;;20.80;1.00;;;;;;5063616;28;20428;-54
2022/10/04 11:56:47;;;;;;;5.23;1.40;;;21.20;1.00;;;;;;5071330;28;20432;-55
2022/10/04 11:59:37;;;;;;;3.07;1.20;;;21.40;1.00;;;;;;5071180;28;21002;-56
2022/10/04 12:02:21;;;;;;;4.20;1.40;;;21.00;1.00;;;;;;5049112;28;20830;-53
2022/10/04 12:05:10;;;;;;;3.23;1.17;;;20.50;1.00;;;;;;5051101;28;20768;-56
2022/10/04 12:08:01;;;;;;;2.47;1.17;;;20.10;1.00;;;;;;5050862;28;20458;-54
2022/10/04 12:10:38;;;;;;;3.27;1.60;;;19.90;1.00;;;;;;5050914;28;20426;-54
2022/10/04 12:13:13;;;;;;;4.30;1.33;;;19.90;1.00;;;;;;5050583;28;20921;-55
2022/10/04 12:16:07;;;;;;;6.13;1.70;;;19.70;1.00;;;;;;5050841;28;20428;-56
2022/10/04 12:19:00;;;;;;;5.37;1.60;;;19.60;1.00;;;;;;5050725;28;20433;-53
2022/10/04 12:21:44;;;;;;;3.17;1.17;;;19.60;1.00;;;;;;5050794;28;20440;-55
2022/10/04 12:24:18;;;;;;;2.57;1.40;;;19.30;1.00;;;;;;5049913;28;20487;-57
2022/10/04 12:26:44;;;;;;;2.57;1.10;;;19.20;1.00;;;;;;5049806;28;20917;-54
2022/10/04 12:29:28;;;;;;;2.77;1.30;;;19.30;1.00;;;;;;5050286;28;20448;-55
2022/10/04 12:32:02;;;;;;;5.87;1.90;;;19.30;1.00;;;;;;5050631;28;20174;-54
2022/10/04 12:35:00;;;;;;;4.63;1.60;;;19.30;1.00;;;;;;5049817;28;20428;-52
2022/10/04 12:37:38;;;;;;;3.03;1.10;;;19.20;1.00;;;;;;5050327;28;20537;-53
2022/10/04 12:40:25;;;;;;;3.13;1.43;;;19.40;1.00;;;;;;5050561;28;20508;-55
2022/10/04 12:43:05;;;;;;;4.53;1.70;;;19.40;1.00;;;;;;5050282;28;20461;-57
2022/10/04 12:45:40;;;;;;;10.93;1.90;;;19.30;1.00;;;;;;5050191;28;20771;-54
2022/10/04 12:48:47;;;;;;;3.53;1.60;;;19.20;1.00;;;;;;5050077;28;20483;-55
2022/10/04 12:51:26;;;;;;;2.67;1.10;;;19.00;1.00;;;;;;5047149;28;20525;-54
2022/10/04 12:54:05;;;;;;;6.83;1.77;;;19.20;1.00;;;;;;5049942;28;20516;-54
2022/10/04 12:56:39;;;;;;;3.73;1.53;;;19.50;1.00;;;;;;5050261;28;20460;-55
2022/10/04 12:59:18;;;;;;;2.47;1.30;;;19.80;1.00;;;;;;5045585;28;20938;-56
2022/10/04 13:02:10;;;;;;;3.47;1.23;;;19.70;1.00;;;;;;5049877;28;20970;-55
2022/10/04 13:04:47;;;;;;;2.67;1.40;;;19.50;1.00;;;;;;5049942;28;20431;-53
2022/10/04 13:07:28;;;;;;;2.43;1.63;;;19.40;1.00;;;;;;5050136;28;20511;-55
2022/10/04 13:10:21;;;;;;;2.70;1.70;;;19.10;1.00;;;;;;5050401;28;20441;-54
2022/10/04 13:13:09;;;;;;;4.20;1.60;;;19.10;1.00;;;;;;5048581;28;20792;-54
2022/10/04 13:16:07;;;;;;;9.20;2.80;;;19.10;1.00;;;;;;5049909;28;20517;-54
2022/10/04 13:18:51;;;;;;;1.90;1.60;;;19.40;1.00;;;;;;5049985;28;20440;-53
2022/10/04 13:21:24;;;;;;;4.53;1.73;;;19.50;1.00;;;;;;5050247;28;20520;-54
2022/10/04 13:24:00;;;;;;;3.70;2.30;;;19.50;1.00;;;;;;5050165;28;20444;-55
2022/10/04 13:27:14;;;;;;;5.40;2.30;;;19.70;1.00;;;;;;5048593;28;20519;-54
2022/10/04 13:29:53;;;;;;;4.30;1.93;;;19.90;1.00;;;;;;5048298;28;20437;-55
2022/10/04 13:32:32;;;;;;;3.27;1.70;;;19.90;1.00;;;;;;5049957;28;20774;-53
2022/10/04 13:35:03;;;;;;;2.30;1.20;;;19.80;1.00;;;;;;5048799;28;20469;-55
2022/10/04 13:37:50;;;;;;;1.97;1.40;;;19.70;1.00;;;;;;5050105;28;20533;-53
2022/10/04 13:40:38;;;;;;;2.90;1.30;;;19.80;1.00;;;;;;5054008;28;20523;-53
2022/10/04 13:43:31;;;;;;;4.30;1.87;;;19.50;1.00;;;;;;5053650;28;20468;-54
2022/10/04 13:46:24;;;;;;;4.40;1.80;;;19.50;1.00;;;;;;5054120;28;20448;-55
2022/10/04 13:48:59;;;;;;;3.03;1.87;;;19.50;1.00;;;;;;5052645;28;20463;-55
2022/10/04 13:51:38;;;;;;;2.57;1.70;;;19.60;1.00;;;;;;5054053;28;20834;-51
2022/10/04 13:57:20;;;;;;;2.10;1.30;;;20.00;1.00;;;;;;5054229;28;20440;-56
2022/10/04 14:00:01;;;;;;;3.33;1.50;;;20.00;1.00;;;;;;5049097;28;20965;-54
2022/10/04 14:03:11;;;;;;;3.27;1.37;;;20.10;1.00;;;;;;5053484;28;20501;-54
2022/10/04 14:06:03;;;;;;;2.97;2.27;;;19.90;1.00;;;;;;5052189;28;20439;-53
2022/10/04 14:08:51;;;;;;;3.70;1.53;;;19.90;1.00;;;;;;5050232;28;20478;-55
2022/10/04 14:11:53;;;;;;;3.07;1.20;;;20.00;1.00;;;;;;5053679;28;20435;-55
2022/10/04 14:14:56;;;;;;;2.67;1.60;;;20.10;1.00;;;;;;5053542;28;20440;-54
2022/10/04 14:17:51;;;;;;;5.80;2.00;;;20.00;1.00;;;;;;5053516;28;20436;-56
2022/10/04 14:20:39;;;;;;;2.60;1.10;;;19.90;1.00;;;;;;5053331;28;20783;-52